Time;durP1;ratioP1;P1;durP2;ratioP2;P2;SDS_P1;SDS_P2;PMS_P1;PMS_P2;Temp;Humidity;BMP_temperature;BMP_pressure;BME280_temperature;BME280_humidity;BME280_pressure;Samples;Min_cycle;Max_cycle;Signal;HPM_P1;HPM_P2
2023/01/24 00:01:03;;;;;;;12.57;7.00;;;3.20;99.90;;;;;;4997443;28;20470;-42
2023/01/24 00:03:30;;;;;;;18.67;8.50;;;3.20;99.90;;;;;;4997529;28;20442;-41
2023/01/24 00:05:57;;;;;;;15.07;10.20;;;3.20;99.90;;;;;;4998890;28;20431;-42
2023/01/24 00:08:24;;;;;;;21.03;9.10;;;3.20;99.90;;;;;;4998898;28;20519;-42
2023/01/24 00:11:00;;;;;;;21.47;8.37;;;3.20;99.90;;;;;;4998946;28;20466;-42
2023/01/24 00:13:27;;;;;;;8.57;6.70;;;3.20;99.90;;;;;;4998305;28;20467;-43
2023/01/24 00:16:03;;;;;;;14.37;7.20;;;3.10;99.90;;;;;;4998372;28;20507;-44
2023/01/24 00:23:48;;;;;;;13.80;7.17;;;3.10;99.90;;;;;;6015758;23;21441;-46
2023/01/24 00:26:19;;;;;;;10.87;7.40;;;2.60;99.90;;;;;;4972851;29;20498;-50
2023/01/24 00:28:47;;;;;;;16.07;8.77;;;3.00;99.90;;;;;;4978849;28;20463;-54
2023/01/24 00:31:14;;;;;;;17.43;7.27;;;3.00;99.90;;;;;;4978136;29;20443;-55
2023/01/24 00:33:41;;;;;;;16.33;8.30;;;3.00;99.90;;;;;;4977927;29;20495;-50
2023/01/24 00:36:16;;;;;;;19.20;8.93;;;3.00;99.90;;;;;;4977792;29;20476;-52
2023/01/24 00:38:43;;;;;;;16.37;9.33;;;3.00;99.90;;;;;;4977584;29;20455;-50
2023/01/24 00:41:10;;;;;;;15.87;7.40;;;3.00;99.90;;;;;;4978405;29;20459;-52
2023/01/24 00:43:38;;;;;;;23.03;10.20;;;3.00;99.90;;;;;;4978884;29;20455;-50
2023/01/24 00:46:06;;;;;;;15.80;9.00;;;3.00;99.90;;;;;;4977764;29;20492;-51
2023/01/24 00:48:34;;;;;;;18.63;8.00;;;3.00;99.90;;;;;;4977850;29;20470;-47
2023/01/24 00:51:00;;;;;;;14.80;7.53;;;3.10;99.90;;;;;;4971535;29;20464;-55
2023/01/24 00:53:27;;;;;;;15.37;8.63;;;3.00;99.90;;;;;;4978639;29;20432;-53
2023/01/24 00:55:55;;;;;;;19.17;8.90;;;3.00;99.90;;;;;;4978568;29;20483;-53
2023/01/24 00:58:22;;;;;;;17.27;8.77;;;3.00;99.90;;;;;;4978048;29;20466;-55
2023/01/24 01:00:50;;;;;;;12.33;6.90;;;2.90;99.90;;;;;;4977992;29;20475;-57
2023/01/24 01:03:20;;;;;;;19.40;8.33;;;2.90;99.90;;;;;;4967215;29;20482;-47
2023/01/24 01:05:46;;;;;;;20.37;8.10;;;2.90;99.90;;;;;;4978040;29;20463;-53
2023/01/24 01:08:13;;;;;;;15.30;7.57;;;2.90;99.90;;;;;;4976623;29;20491;-54
2023/01/24 01:10:41;;;;;;;16.47;6.67;;;3.00;99.90;;;;;;4977100;29;20424;-54
2023/01/24 01:13:09;;;;;;;12.30;6.33;;;3.00;99.90;;;;;;4972396;29;20468;-56
2023/01/24 01:15:37;;;;;;;11.80;7.03;;;3.00;99.90;;;;;;4977109;29;20479;-50
2023/01/24 01:18:05;;;;;;;12.93;7.03;;;3.00;99.90;;;;;;4977419;29;20459;-56
2023/01/24 01:20:32;;;;;;;12.17;6.50;;;3.00;99.90;;;;;;4966379;29;20533;-58
2023/01/24 01:22:59;;;;;;;12.67;6.33;;;3.00;99.90;;;;;;4970086;29;21054;-48
2023/01/24 01:25:26;;;;;;;16.67;7.77;;;3.10;99.90;;;;;;4976195;29;20483;-54
2023/01/24 01:27:53;;;;;;;14.70;8.47;;;3.00;99.90;;;;;;4972395;29;20498;-52
2023/01/24 01:30:20;;;;;;;14.77;8.37;;;3.00;99.90;;;;;;4975585;28;20512;-54
2023/01/24 01:32:47;;;;;;;13.20;7.10;;;3.00;99.90;;;;;;4972548;29;20436;-54
2023/01/24 01:35:15;;;;;;;14.30;6.57;;;3.00;99.90;;;;;;4972651;29;20547;-55
2023/01/24 01:37:42;;;;;;;14.40;6.80;;;3.00;99.90;;;;;;4972541;29;20504;-53
2023/01/24 01:40:10;;;;;;;12.80;7.27;;;2.90;99.90;;;;;;4946671;29;20491;-53
2023/01/24 01:42:51;;;;;;;12.37;7.07;;;2.90;99.90;;;;;;4953995;29;20503;-57
2023/01/24 01:45:45;;;;;;;13.00;7.20;;;2.90;99.90;;;;;;4955016;29;20455;-55
2023/01/24 01:48:21;;;;;;;14.80;7.47;;;2.90;99.90;;;;;;4956980;29;20476;-59
2023/01/24 01:50:57;;;;;;;13.80;6.87;;;2.90;99.90;;;;;;4957023;29;20444;-56
2023/01/24 01:53:29;;;;;;;16.17;7.40;;;2.90;99.90;;;;;;4957061;29;20491;-49
2023/01/24 01:56:01;;;;;;;9.90;6.47;;;2.80;99.90;;;;;;4969585;29;20498;-48
2023/01/24 01:58:28;;;;;;;12.13;6.77;;;2.80;99.90;;;;;;4974675;29;20536;-51
2023/01/24 02:00:55;;;;;;;8.33;5.20;;;2.80;99.90;;;;;;4976213;29;20450;-49
2023/01/24 02:03:40;;;;;;;11.30;6.47;;;2.80;99.90;;;;;;4976263;29;20487;-50
2023/01/24 02:06:34;;;;;;;7.37;5.50;;;2.80;99.90;;;;;;4976266;29;20499;-54
2023/01/24 02:09:04;;;;;;;9.90;6.57;;;2.80;99.90;;;;;;4974255;29;20434;-51
2023/01/24 02:11:40;;;;;;;8.93;5.33;;;2.80;99.90;;;;;;4976245;29;20464;-47
2023/01/24 02:16:55;;;;;;;10.43;6.83;;;2.70;99.90;;;;;;4976625;29;20472;-54
2023/01/24 02:19:41;;;;;;;8.97;5.70;;;2.70;99.90;;;;;;4950055;29;20456;-50
2023/01/24 02:22:16;;;;;;;10.87;7.10;;;2.60;99.90;;;;;;4956988;29;20559;-53
2023/01/24 02:24:53;;;;;;;8.80;4.57;;;2.60;99.90;;;;;;4959148;29;20436;-50
2023/01/24 02:27:22;;;;;;;6.30;4.20;;;2.60;99.90;;;;;;4975932;29;20508;-49
2023/01/24 02:29:49;;;;;;;9.07;5.60;;;2.60;99.90;;;;;;4976760;29;20462;-53
2023/01/24 02:32:18;;;;;;;10.30;6.10;;;2.60;99.90;;;;;;4977090;29;20459;-55
2023/01/24 02:34:45;;;;;;;9.03;6.20;;;2.70;99.90;;;;;;4975242;29;20431;-55
2023/01/24 02:37:14;;;;;;;10.10;5.00;;;2.70;99.90;;;;;;4949905;29;20492;-52
2023/01/24 02:39:46;;;;;;;11.40;6.70;;;2.70;99.90;;;;;;4975079;29;20467;-46
2023/01/24 02:42:15;;;;;;;10.83;5.50;;;2.70;99.90;;;;;;4980891;29;20432;-48
2023/01/24 02:44:49;;;;;;;10.43;5.70;;;2.60;99.90;;;;;;4981452;29;20456;-42
2023/01/24 02:47:16;;;;;;;9.87;5.53;;;2.60;99.90;;;;;;4980079;29;20444;-42
2023/01/24 02:49:42;;;;;;;11.63;5.50;;;2.60;99.90;;;;;;4978489;29;20494;-55
2023/01/24 02:54:54;;;;;;;7.03;4.70;;;2.60;99.90;;;;;;4978219;29;20432;-55
2023/01/24 03:00:09;;;;;;;7.80;4.73;;;2.60;99.90;;;;;;4980127;29;20428;-49
2023/01/24 03:02:36;;;;;;;10.00;4.90;;;2.60;99.90;;;;;;4980171;29;20471;-53
2023/01/24 03:05:03;;;;;;;6.30;4.00;;;2.60;99.90;;;;;;4977245;29;20495;-53
2023/01/24 03:07:41;;;;;;;8.50;4.40;;;2.50;99.90;;;;;;4961377;29;20479;-52
2023/01/24 03:10:09;;;;;;;12.00;5.33;;;2.50;99.90;;;;;;4961228;29;20437;-54
2023/01/24 03:34:45;;;;;;;5.53;4.10;;;2.40;99.90;;;;;;4960985;29;20445;-51
2023/01/24 03:37:13;;;;;;;9.60;5.47;;;2.40;99.90;;;;;;4960273;29;20432;-49
2023/01/24 03:39:58;;;;;;;9.27;5.00;;;2.40;99.90;;;;;;4978714;29;20440;-57
2023/01/24 03:42:25;;;;;;;6.40;5.60;;;2.40;99.90;;;;;;4979422;29;20428;-54
2023/01/24 03:44:52;;;;;;;6.77;4.93;;;2.40;99.90;;;;;;4976989;29;20490;-50
2023/01/24 03:47:20;;;;;;;9.40;5.40;;;2.40;99.90;;;;;;4952751;29;20480;-44
2023/01/24 03:52:31;;;;;;;6.50;4.47;;;2.40;99.90;;;;;;4978915;28;20471;-49
2023/01/24 03:55:00;;;;;;;7.37;5.77;;;2.40;99.90;;;;;;4979010;29;20463;-55
2023/01/24 03:57:28;;;;;;;8.50;5.03;;;2.40;99.90;;;;;;4977065;29;20862;-56
2023/01/24 03:59:55;;;;;;;7.27;5.10;;;2.40;99.90;;;;;;4960340;29;20425;-50
2023/01/24 04:02:24;;;;;;;16.70;4.60;;;2.40;99.90;;;;;;4953776;29;20464;-57
2023/01/24 04:07:34;;;;;;;7.47;4.97;;;2.40;99.90;;;;;;4960085;29;20410;-50
2023/01/24 04:10:01;;;;;;;7.93;4.70;;;2.40;99.90;;;;;;4959892;29;20472;-51
2023/01/24 04:12:28;;;;;;;12.73;6.13;;;2.40;99.90;;;;;;4959572;29;20521;-50
2023/01/24 04:14:55;;;;;;;9.37;5.80;;;2.40;99.90;;;;;;4959313;29;20464;-51
2023/01/24 04:17:23;;;;;;;12.13;6.50;;;2.40;99.90;;;;;;4976992;29;20432;-46
2023/01/24 04:19:50;;;;;;;13.23;7.20;;;2.50;99.90;;;;;;4940277;29;20454;-55
2023/01/24 04:22:17;;;;;;;9.50;5.60;;;2.40;99.90;;;;;;4955331;29;20437;-54
2023/01/24 04:24:45;;;;;;;7.47;5.90;;;2.40;99.90;;;;;;4959592;29;20461;-51
2023/01/24 04:27:12;;;;;;;8.60;5.17;;;2.40;99.90;;;;;;4976123;29;20474;-55
2023/01/24 04:29:39;;;;;;;7.33;4.10;;;2.40;99.90;;;;;;4977287;29;20496;-51
2023/01/24 04:32:06;;;;;;;7.60;3.93;;;2.40;99.90;;;;;;4978050;29;20512;-57
2023/01/24 04:34:35;;;;;;;9.47;5.40;;;2.40;99.90;;;;;;4969193;29;20532;-58
2023/01/24 04:37:01;;;;;;;5.97;4.50;;;2.40;99.90;;;;;;4976820;29;20507;-54
2023/01/24 04:39:28;;;;;;;7.00;4.03;;;2.30;99.90;;;;;;4960340;29;20505;-52
2023/01/24 04:41:55;;;;;;;8.10;5.20;;;2.30;99.90;;;;;;4959136;29;20472;-48
2023/01/24 04:44:22;;;;;;;10.47;5.43;;;2.30;99.90;;;;;;4959333;29;20456;-55
2023/01/24 04:46:49;;;;;;;12.93;6.33;;;2.30;99.90;;;;;;4959145;29;20480;-55
2023/01/24 04:49:17;;;;;;;9.17;5.70;;;2.30;99.90;;;;;;4958160;29;20560;-56
2023/01/24 04:51:47;;;;;;;8.50;5.90;;;2.30;99.90;;;;;;4959612;29;20436;-50
2023/01/24 04:54:14;;;;;;;8.37;4.30;;;2.40;99.90;;;;;;4959237;29;20491;-52
2023/01/24 04:56:40;;;;;;;6.23;4.80;;;2.30;99.90;;;;;;4971967;29;20476;-43
2023/01/24 04:59:07;;;;;;;14.30;5.20;;;2.30;99.90;;;;;;4963869;29;20456;-52
2023/01/24 05:01:34;;;;;;;10.47;5.57;;;2.30;99.90;;;;;;4958773;29;20472;-51
2023/01/24 05:04:01;;;;;;;9.30;5.30;;;2.30;99.90;;;;;;4958719;29;20445;-46
2023/01/24 05:06:29;;;;;;;10.93;5.77;;;2.40;99.90;;;;;;4968857;29;20496;-50
2023/01/24 05:08:58;;;;;;;6.87;4.67;;;2.30;99.90;;;;;;4963976;29;20471;-50
2023/01/24 05:11:25;;;;;;;10.07;5.40;;;2.40;99.90;;;;;;4957979;29;20511;-47
2023/01/24 05:13:52;;;;;;;12.40;5.73;;;2.40;99.90;;;;;;4958324;29;20461;-51
2023/01/24 05:16:19;;;;;;;10.20;4.77;;;2.40;99.90;;;;;;4956415;29;20502;-52
2023/01/24 05:18:47;;;;;;;7.23;4.63;;;2.40;99.90;;;;;;4964810;29;20472;-52
2023/01/24 05:21:16;;;;;;;9.00;4.47;;;2.40;99.90;;;;;;4957695;29;20491;-51
2023/01/24 05:23:43;;;;;;;9.17;4.93;;;2.40;99.90;;;;;;4951118;29;20505;-55
2023/01/24 05:26:12;;;;;;;10.13;5.00;;;2.40;99.90;;;;;;4947041;29;20487;-48
2023/01/24 05:28:38;;;;;;;13.07;7.27;;;2.40;99.90;;;;;;4958137;29;20453;-53
2023/01/24 05:31:08;;;;;;;11.63;7.13;;;2.40;99.90;;;;;;4957836;29;20549;-52
2023/01/24 05:33:35;;;;;;;10.00;5.80;;;2.40;99.90;;;;;;4957928;29;20468;-50
2023/01/24 05:36:05;;;;;;;9.23;5.50;;;2.40;99.90;;;;;;4958169;29;20552;-49
2023/01/24 05:38:32;;;;;;;10.47;6.90;;;2.40;99.90;;;;;;4965858;29;20448;-54
2023/01/24 05:41:00;;;;;;;9.23;4.80;;;2.40;99.90;;;;;;4976741;29;20436;-53
2023/01/24 05:43:29;;;;;;;8.33;6.13;;;2.40;99.90;;;;;;4977163;29;20468;-55
2023/01/24 05:46:00;;;;;;;9.33;5.90;;;2.40;99.90;;;;;;4976268;29;20488;-55
2023/01/24 05:48:27;;;;;;;19.63;6.17;;;2.40;99.90;;;;;;4959533;29;20448;-53
2023/01/24 05:50:58;;;;;;;10.53;5.70;;;2.40;99.90;;;;;;4957263;29;20472;-54
2023/01/24 05:53:25;;;;;;;9.60;6.67;;;2.50;99.90;;;;;;4957066;29;20460;-54
2023/01/24 05:55:56;;;;;;;8.33;5.57;;;2.40;99.90;;;;;;4957008;29;20491;-51
2023/01/24 05:58:23;;;;;;;8.10;5.13;;;2.40;99.90;;;;;;4965022;29;20526;-53
2023/01/24 06:00:51;;;;;;;9.67;6.37;;;2.50;99.90;;;;;;4976227;29;20460;-54
2023/01/24 06:03:18;;;;;;;15.13;7.07;;;2.40;99.90;;;;;;4976473;29;20507;-51
2023/01/24 06:05:49;;;;;;;9.00;5.60;;;2.40;99.90;;;;;;4976011;29;20538;-56
2023/01/24 06:08:17;;;;;;;7.73;5.30;;;2.50;99.90;;;;;;4968373;29;20476;-55
2023/01/24 06:10:46;;;;;;;11.50;5.17;;;2.40;99.90;;;;;;4957272;29;20475;-54
2023/01/24 06:13:15;;;;;;;8.53;5.10;;;2.50;99.90;;;;;;4956963;29;20489;-54
2023/01/24 06:15:42;;;;;;;9.00;5.10;;;2.50;99.90;;;;;;4958483;29;20428;-55
2023/01/24 06:18:15;;;;;;;11.90;6.53;;;2.40;99.90;;;;;;4968626;29;20484;-53
2023/01/24 06:20:43;;;;;;;9.90;6.47;;;2.40;99.90;;;;;;4956382;29;20464;-55
2023/01/24 06:23:18;;;;;;;14.43;7.30;;;2.40;99.90;;;;;;4956632;29;20461;-54
2023/01/24 06:25:45;;;;;;;10.43;5.97;;;2.30;99.90;;;;;;4956612;29;20961;-52
2023/01/24 06:28:12;;;;;;;8.17;5.47;;;2.40;99.90;;;;;;4956998;29;20511;-56
2023/01/24 06:30:41;;;;;;;10.33;5.30;;;2.30;99.90;;;;;;4957532;29;20834;-53
2023/01/24 06:33:20;;;;;;;18.13;7.27;;;2.30;99.90;;;;;;4957573;29;20483;-57
2023/01/24 06:36:08;;;;;;;22.63;6.87;;;2.30;99.90;;;;;;4959441;29;20536;-57
2023/01/24 06:38:35;;;;;;;16.77;7.97;;;2.40;99.90;;;;;;4975182;29;20535;-53
2023/01/24 06:41:03;;;;;;;9.60;5.40;;;2.30;99.90;;;;;;4976195;29;20420;-50
2023/01/24 06:43:30;;;;;;;11.97;7.00;;;2.40;99.90;;;;;;4976561;29;20511;-51
2023/01/24 06:45:57;;;;;;;10.70;6.37;;;2.30;99.90;;;;;;4976578;29;20577;-55
2023/01/24 06:48:25;;;;;;;16.40;6.37;;;2.40;99.90;;;;;;4967209;29;20535;-56
2023/01/24 06:50:52;;;;;;;12.33;7.30;;;2.40;99.90;;;;;;4957176;29;20540;-56
2023/01/24 06:53:19;;;;;;;13.33;6.53;;;2.40;99.90;;;;;;4957211;29;20500;-49
2023/01/24 06:55:46;;;;;;;17.07;7.40;;;2.40;99.90;;;;;;4957096;29;20472;-53
2023/01/24 06:58:13;;;;;;;15.40;6.60;;;2.40;99.90;;;;;;4956736;29;20473;-50
2023/01/24 07:00:40;;;;;;;21.03;7.73;;;2.40;99.90;;;;;;4957266;29;20441;-48
2023/01/24 07:03:08;;;;;;;14.47;6.37;;;2.40;99.90;;;;;;4957171;29;20461;-54
2023/01/24 07:05:38;;;;;;;13.17;6.37;;;2.40;99.90;;;;;;4957081;29;20449;-48
2023/01/24 07:08:06;;;;;;;28.93;7.77;;;2.40;99.90;;;;;;4944690;29;20484;-55
2023/01/24 07:10:33;;;;;;;22.17;8.73;;;2.40;99.90;;;;;;4957867;29;20473;-51
2023/01/24 07:13:00;;;;;;;16.73;6.63;;;2.40;99.90;;;;;;4957653;29;21145;-51
2023/01/24 07:15:27;;;;;;;12.80;6.77;;;2.40;99.90;;;;;;4956960;29;20503;-50
2023/01/24 07:17:54;;;;;;;16.20;7.23;;;2.40;99.90;;;;;;4960613;29;20543;-51
2023/01/24 07:20:22;;;;;;;14.40;7.17;;;2.40;99.90;;;;;;4976044;29;20477;-49
2023/01/24 07:22:51;;;;;;;21.67;8.37;;;2.40;99.90;;;;;;4976067;29;20464;-49
2023/01/24 07:25:20;;;;;;;14.10;7.50;;;2.40;99.90;;;;;;4976171;29;20875;-57
2023/01/24 07:27:48;;;;;;;19.03;7.90;;;2.40;99.90;;;;;;4973083;28;20475;-50
2023/01/24 07:30:15;;;;;;;22.50;8.97;;;2.40;99.90;;;;;;4959986;29;20535;-55
2023/01/24 07:32:42;;;;;;;13.93;7.10;;;2.50;99.90;;;;;;4960478;29;20525;-51
2023/01/24 07:35:09;;;;;;;17.80;7.17;;;2.40;99.90;;;;;;4960410;29;20512;-49
2023/01/24 07:37:36;;;;;;;25.90;8.37;;;2.50;99.90;;;;;;4972603;29;20510;-55
2023/01/24 07:40:05;;;;;;;22.30;9.13;;;2.40;99.90;;;;;;4960545;29;20444;-52
2023/01/24 07:42:32;;;;;;;15.37;6.90;;;2.50;99.90;;;;;;4960094;29;20483;-55
2023/01/24 07:44:59;;;;;;;16.43;6.90;;;2.50;99.90;;;;;;4959994;29;20471;-51
2023/01/24 07:47:27;;;;;;;30.70;8.67;;;2.50;99.90;;;;;;4971659;29;20443;-55
2023/01/24 07:49:54;;;;;;;25.40;9.93;;;2.50;99.90;;;;;;4979452;29;20487;-52
2023/01/24 07:52:20;;;;;;;23.60;9.67;;;2.50;99.90;;;;;;4979398;29;20474;-53
2023/01/24 07:54:47;;;;;;;25.60;9.10;;;2.50;99.90;;;;;;4979186;29;20487;-52
2023/01/24 07:57:16;;;;;;;28.63;9.03;;;2.50;99.90;;;;;;4967688;29;20507;-57
2023/01/24 07:59:43;;;;;;;14.93;8.20;;;2.60;99.90;;;;;;4978237;29;20457;-53
2023/01/24 08:02:11;;;;;;;17.47;8.73;;;2.60;99.90;;;;;;4978778;29;20813;-53
2023/01/24 08:04:38;;;;;;;26.10;8.37;;;2.50;99.90;;;;;;4978484;29;20809;-55
2023/01/24 08:07:20;;;;;;;30.37;11.37;;;2.50;99.90;;;;;;4977935;29;20494;-47
2023/01/24 08:09:48;;;;;;;24.30;9.47;;;2.50;99.90;;;;;;4977747;29;20476;-51
2023/01/24 08:12:16;;;;;;;22.37;12.27;;;2.50;99.90;;;;;;4977531;29;20495;-52
2023/01/24 08:14:43;;;;;;;30.53;12.00;;;2.50;99.90;;;;;;4978380;29;20468;-51
2023/01/24 08:17:13;;;;;;;25.40;11.37;;;2.50;99.90;;;;;;4967887;29;20631;-51
2023/01/24 08:19:40;;;;;;;28.20;10.07;;;2.60;99.90;;;;;;4976640;29;20448;-49
2023/01/24 08:22:07;;;;;;;28.30;10.80;;;2.60;99.90;;;;;;4977863;29;20433;-52
2023/01/24 08:24:34;;;;;;;21.50;8.60;;;2.70;99.90;;;;;;4977756;29;20463;-53
2023/01/24 08:27:02;;;;;;;27.10;9.07;;;2.60;99.90;;;;;;4969347;29;20464;-57
2023/01/24 08:29:30;;;;;;;44.37;11.37;;;2.60;99.90;;;;;;4958450;29;20489;-55
2023/01/24 08:31:58;;;;;;;30.83;12.93;;;2.60;99.90;;;;;;4950268;29;20460;-53
2023/01/24 08:34:31;;;;;;;27.77;11.97;;;2.70;99.90;;;;;;4947909;29;20476;-53
2023/01/24 08:36:58;;;;;;;27.40;11.33;;;2.60;99.90;;;;;;4953977;29;20475;-53
2023/01/24 08:39:25;;;;;;;26.73;12.57;;;2.90;99.90;;;;;;4958107;28;20436;-52
2023/01/24 08:41:52;;;;;;;30.30;11.30;;;2.90;99.90;;;;;;4943093;29;20450;-52
2023/01/24 08:44:19;;;;;;;26.07;9.73;;;3.00;99.90;;;;;;4948784;29;20772;-50
2023/01/24 08:46:47;;;;;;;33.60;13.00;;;2.90;99.90;;;;;;4958280;29;20479;-53
2023/01/24 08:49:14;;;;;;;26.73;10.10;;;2.90;99.90;;;;;;4972336;29;20455;-57
2023/01/24 08:51:41;;;;;;;32.63;11.30;;;2.90;99.90;;;;;;4977739;29;20483;-53
2023/01/24 08:54:08;;;;;;;27.90;13.00;;;2.90;99.90;;;;;;4978129;29;20452;-54
2023/01/24 08:56:35;;;;;;;38.73;13.37;;;2.90;99.90;;;;;;4976565;29;20435;-54
2023/01/24 08:59:02;;;;;;;45.83;13.17;;;2.90;99.90;;;;;;4949867;29;20469;-49
2023/01/24 09:01:29;;;;;;;39.17;13.00;;;3.00;99.90;;;;;;4953332;29;21027;-50
2023/01/24 09:03:59;;;;;;;49.13;14.23;;;3.00;99.90;;;;;;4935804;29;20488;-55
2023/01/24 09:06:26;;;;;;;39.83;14.07;;;3.00;99.90;;;;;;4951734;29;20468;-49
2023/01/24 09:08:54;;;;;;;15.77;9.90;;;2.90;99.90;;;;;;4948501;29;20492;-54
2023/01/24 09:11:21;;;;;;;54.00;15.60;;;2.90;99.90;;;;;;4950170;29;20429;-48
2023/01/24 09:13:48;;;;;;;39.07;11.93;;;2.90;99.90;;;;;;4948257;29;20449;-56
2023/01/24 09:16:15;;;;;;;23.20;11.80;;;2.90;99.90;;;;;;4952040;29;20476;-46
2023/01/24 09:18:42;;;;;;;38.87;13.50;;;3.00;99.90;;;;;;4951681;29;20495;-54
2023/01/24 09:21:10;;;;;;;37.80;12.53;;;3.00;99.90;;;;;;4949846;29;20462;-54
2023/01/24 09:23:37;;;;;;;32.10;13.47;;;3.00;99.90;;;;;;4950204;29;20452;-47
2023/01/24 09:26:04;;;;;;;32.83;13.17;;;3.00;99.90;;;;;;4943799;29;20496;-48
2023/01/24 09:28:32;;;;;;;33.33;13.20;;;3.10;99.90;;;;;;4959345;29;20433;-52
2023/01/24 09:30:59;;;;;;;30.77;15.43;;;3.10;99.90;;;;;;4949471;29;20449;-51
2023/01/24 09:33:26;;;;;;;31.07;16.07;;;3.10;99.90;;;;;;4952547;29;20445;-51
2023/01/24 09:35:55;;;;;;;35.77;13.20;;;3.10;99.90;;;;;;4948156;29;20517;-55
2023/01/24 09:38:23;;;;;;;33.77;14.17;;;3.10;99.90;;;;;;4951227;29;20512;-54
2023/01/24 09:40:55;;;;;;;31.77;12.47;;;3.10;99.90;;;;;;4949167;29;20466;-53
2023/01/24 09:43:43;;;;;;;33.57;14.73;;;3.10;99.90;;;;;;4952233;29;20492;-50
2023/01/24 09:46:19;;;;;;;44.63;15.83;;;3.10;99.90;;;;;;4948860;29;20448;-50
2023/01/24 09:48:53;;;;;;;26.67;10.93;;;3.10;99.90;;;;;;4948805;29;20473;-58
2023/01/24 09:51:26;;;;;;;39.63;13.90;;;3.20;99.90;;;;;;4949470;29;20457;-51
2023/01/24 09:53:57;;;;;;;35.07;15.20;;;3.20;99.90;;;;;;4947189;29;20424;-53
2023/01/24 09:56:30;;;;;;;29.33;13.00;;;3.20;99.90;;;;;;4949631;29;20434;-51
2023/01/24 09:59:10;;;;;;;43.37;13.10;;;3.30;99.90;;;;;;4948208;29;20480;-50
2023/01/24 10:01:40;;;;;;;38.67;12.17;;;3.30;99.90;;;;;;4939050;29;20414;-53
2023/01/24 10:04:16;;;;;;;39.23;14.80;;;3.40;99.90;;;;;;4944270;29;20448;-49
2023/01/24 10:07:01;;;;;;;35.23;13.50;;;3.40;99.90;;;;;;4940808;29;20416;-49
2023/01/24 10:09:39;;;;;;;44.60;15.77;;;3.50;99.90;;;;;;4932494;29;20497;-50
2023/01/24 10:12:16;;;;;;;37.20;13.57;;;3.40;99.90;;;;;;4939301;29;20465;-49
2023/01/24 10:14:54;;;;;;;27.53;12.47;;;3.40;99.90;;;;;;4932954;29;20421;-51
2023/01/24 10:17:36;;;;;;;30.37;12.07;;;3.50;99.90;;;;;;4945284;29;20496;-47
2023/01/24 10:20:29;;;;;;;35.77;14.07;;;3.50;99.90;;;;;;4938161;29;20445;-54
2023/01/24 10:23:04;;;;;;;38.33;14.33;;;3.50;99.90;;;;;;4937871;29;20513;-53
2023/01/24 10:25:42;;;;;;;34.90;14.77;;;3.50;99.90;;;;;;4944102;29;20445;-47
2023/01/24 10:28:18;;;;;;;37.63;11.23;;;3.60;99.90;;;;;;4956382;29;20448;-50
2023/01/24 10:30:53;;;;;;;30.40;14.90;;;3.60;99.90;;;;;;4946378;29;20464;-49
2023/01/24 10:33:20;;;;;;;30.50;13.30;;;3.60;99.90;;;;;;4945510;29;20445;-51
2023/01/24 10:35:57;;;;;;;35.67;13.00;;;3.70;99.90;;;;;;4946573;29;20448;-49
2023/01/24 10:38:24;;;;;;;47.33;14.10;;;3.80;99.90;;;;;;4942874;29;20473;-56
2023/01/24 10:40:55;;;;;;;27.00;12.13;;;3.80;99.90;;;;;;4944108;29;20445;-55
2023/01/24 10:43:25;;;;;;;41.17;14.00;;;3.80;99.90;;;;;;4944239;29;20421;-50
2023/01/24 10:46:05;;;;;;;37.67;13.00;;;3.80;99.90;;;;;;4940826;29;20465;-56
2023/01/24 10:48:42;;;;;;;38.00;14.37;;;3.90;99.90;;;;;;4951758;29;20853;-49
2023/01/24 10:51:15;;;;;;;39.13;14.30;;;3.90;99.90;;;;;;4946569;29;20448;-54
2023/01/24 10:53:42;;;;;;;37.30;16.10;;;3.90;99.90;;;;;;4944510;29;20442;-54
2023/01/24 10:56:11;;;;;;;29.60;14.23;;;4.00;99.90;;;;;;4946160;29;20495;-56
2023/01/24 10:58:41;;;;;;;29.13;13.27;;;3.90;99.90;;;;;;4951109;29;20521;-50
2023/01/24 11:01:17;;;;;;;33.77;14.23;;;4.00;99.90;;;;;;4948386;29;20441;-53
2023/01/24 11:03:44;;;;;;;49.00;14.27;;;4.00;99.90;;;;;;4959530;29;20429;-51
2023/01/24 11:06:25;;;;;;;37.47;12.20;;;4.10;99.90;;;;;;4942270;29;20449;-53
2023/01/24 11:08:55;;;;;;;40.90;13.27;;;4.10;99.90;;;;;;4960048;29;20500;-51
2023/01/24 11:11:29;;;;;;;35.30;13.63;;;4.10;99.90;;;;;;4960511;29;20427;-52
2023/01/24 11:13:57;;;;;;;42.93;14.90;;;4.00;99.90;;;;;;4960070;29;20483;-52
2023/01/24 11:16:28;;;;;;;35.70;13.90;;;4.00;99.90;;;;;;4960909;29;20449;-51
2023/01/24 11:18:59;;;;;;;29.57;13.30;;;4.00;99.90;;;;;;4977650;29;20479;-54
2023/01/24 11:21:27;;;;;;;36.83;14.67;;;4.00;99.90;;;;;;4975115;29;20508;-51
2023/01/24 11:24:08;;;;;;;34.83;12.70;;;4.00;99.90;;;;;;4937934;29;20461;-58
2023/01/24 11:26:52;;;;;;;25.30;13.40;;;3.90;99.90;;;;;;4940567;29;20414;-50
2023/01/24 11:29:19;;;;;;;37.90;13.30;;;3.90;99.90;;;;;;4975310;29;20491;-55
2023/01/24 11:31:48;;;;;;;29.67;12.60;;;3.90;99.90;;;;;;4979650;29;20479;-55
2023/01/24 11:34:43;;;;;;;32.43;12.53;;;3.90;99.90;;;;;;4980484;28;20436;-51
2023/01/24 11:37:37;;;;;;;25.93;12.90;;;4.00;99.90;;;;;;4967730;29;20479;-52
2023/01/24 11:40:21;;;;;;;29.33;12.40;;;4.00;99.90;;;;;;4947870;29;20445;-52
2023/01/24 11:42:58;;;;;;;27.83;9.80;;;4.00;99.90;;;;;;4956066;29;20460;-48
2023/01/24 11:45:45;;;;;;;25.93;10.70;;;3.90;99.90;;;;;;4958178;29;20440;-56
2023/01/24 11:48:19;;;;;;;28.07;13.77;;;3.90;99.90;;;;;;4958674;29;20483;-54
2023/01/24 11:50:55;;;;;;;32.00;12.30;;;4.00;99.90;;;;;;4957966;29;20436;-52
2023/01/24 11:53:41;;;;;;;24.27;10.70;;;3.90;99.90;;;;;;4958906;29;20453;-50
2023/01/24 11:56:20;;;;;;;27.40;11.07;;;3.90;99.90;;;;;;4958081;29;20437;-53
2023/01/24 11:59:37;;;;;;;31.40;12.17;;;3.90;99.90;;;;;;4959208;29;20480;-58
2023/01/24 12:02:24;;;;;;;18.40;10.13;;;3.90;99.90;;;;;;4863972;29;20485;-55
2023/01/24 12:05:16;;;;;;;33.20;11.47;;;3.90;99.90;;;;;;4945293;29;20507;-58
2023/01/24 12:07:52;;;;;;;20.03;10.40;;;3.90;99.90;;;;;;4959679;29;20441;-59
2023/01/24 12:10:26;;;;;;;29.60;12.17;;;3.90;99.90;;;;;;4960273;29;20480;-52
2023/01/24 12:13:03;;;;;;;24.60;11.07;;;4.00;99.90;;;;;;4960126;29;20480;-57
2023/01/24 12:15:43;;;;;;;26.37;12.23;;;3.90;99.90;;;;;;4960900;29;20473;-54
2023/01/24 12:18:26;;;;;;;37.10;12.23;;;3.90;99.90;;;;;;4960490;29;20507;-56
2023/01/24 12:20:58;;;;;;;23.87;10.50;;;3.90;99.90;;;;;;4960666;29;20421;-52
2023/01/24 12:23:29;;;;;;;27.30;12.90;;;3.90;99.90;;;;;;4960313;29;20432;-52
2023/01/24 12:26:01;;;;;;;15.50;9.73;;;3.90;99.90;;;;;;4960591;29;20429;-55
2023/01/24 12:28:34;;;;;;;29.53;12.23;;;3.90;99.90;;;;;;4959702;29;20475;-53
2023/01/24 12:31:03;;;;;;;30.73;12.47;;;3.90;99.90;;;;;;4960017;29;20484;-55
2023/01/24 12:33:35;;;;;;;20.33;10.00;;;3.90;99.90;;;;;;4959948;29;20488;-54
2023/01/24 12:36:10;;;;;;;19.97;10.50;;;3.90;99.90;;;;;;4960326;29;20473;-50
2023/01/24 12:38:41;;;;;;;28.47;11.07;;;3.90;99.90;;;;;;4960093;29;20469;-52
2023/01/24 12:41:16;;;;;;;20.13;10.77;;;3.90;99.90;;;;;;4957960;29;20526;-57
2023/01/24 12:43:54;;;;;;;24.30;11.20;;;4.00;99.90;;;;;;4957269;29;20465;-49
2023/01/24 12:46:29;;;;;;;22.10;10.60;;;4.00;99.90;;;;;;4960463;29;20469;-52
2023/01/24 12:49:11;;;;;;;19.43;11.60;;;4.00;99.90;;;;;;4959160;29;20421;-55
2023/01/24 12:51:43;;;;;;;31.27;13.67;;;4.00;99.90;;;;;;4960264;29;20441;-53
2023/01/24 12:54:15;;;;;;;22.27;12.27;;;4.00;99.90;;;;;;4959193;29;20477;-53
2023/01/24 12:56:50;;;;;;;24.03;15.03;;;4.00;99.90;;;;;;4959736;29;20472;-53
2023/01/24 12:59:24;;;;;;;39.30;14.73;;;3.90;99.90;;;;;;4959339;29;20452;-53
2023/01/24 13:02:03;;;;;;;29.50;12.90;;;4.00;99.90;;;;;;4959339;29;20433;-52
2023/01/24 13:04:42;;;;;;;21.90;10.60;;;4.00;99.90;;;;;;4955997;29;20472;-57
2023/01/24 13:07:18;;;;;;;24.83;13.07;;;3.90;99.90;;;;;;4959160;29;20460;-51
2023/01/24 13:09:53;;;;;;;29.33;13.10;;;3.90;99.90;;;;;;4958843;29;20465;-54
2023/01/24 13:12:23;;;;;;;22.27;12.07;;;4.00;99.90;;;;;;4946078;29;20432;-58
2023/01/24 13:14:55;;;;;;;34.70;12.77;;;3.90;99.90;;;;;;4959055;29;20503;-58
2023/01/24 13:17:40;;;;;;;26.93;11.53;;;4.00;99.90;;;;;;4955616;29;20918;-59
2023/01/24 13:20:22;;;;;;;18.90;9.97;;;4.00;99.90;;;;;;4954935;29;20453;-55
2023/01/24 13:23:09;;;;;;;28.53;11.60;;;4.00;99.90;;;;;;4958883;29;20413;-56
2023/01/24 13:26:06;;;;;;;18.77;9.77;;;3.90;99.90;;;;;;4950009;29;20555;-53
2023/01/24 13:28:41;;;;;;;19.10;9.53;;;3.90;99.90;;;;;;4957998;29;20461;-53
2023/01/24 13:31:16;;;;;;;22.83;11.03;;;3.90;99.90;;;;;;4958556;29;20476;-57
2023/01/24 13:33:49;;;;;;;27.97;10.20;;;3.90;99.90;;;;;;4958560;29;20429;-53
2023/01/24 13:36:20;;;;;;;23.10;9.10;;;3.80;99.90;;;;;;4949904;29;20468;-54
2023/01/24 13:38:48;;;;;;;18.73;9.33;;;3.80;99.90;;;;;;4958375;29;20491;-54
2023/01/24 13:41:17;;;;;;;26.07;10.63;;;3.80;99.90;;;;;;4958632;29;20534;-52
2023/01/24 13:43:58;;;;;;;16.87;8.17;;;3.80;99.90;;;;;;4949655;29;20465;-53
2023/01/24 13:46:57;;;;;;;20.97;10.83;;;3.80;99.90;;;;;;4958722;29;20433;-55